createdAt,value
2019-05-01T00:01:48.007Z,35.43
2019-05-01T00:04:32.460Z,40.13
2019-05-01T00:07:06.722Z,34.10
2019-05-01T00:09:38.602Z,37.10
2019-05-01T00:12:09.020Z,33.40
2019-05-01T00:14:41.274Z,34.40
2019-05-01T00:17:14.935Z,34.17
2019-05-01T00:19:45.670Z,31.00
2019-05-01T00:22:16.104Z,37.33
2019-05-01T00:24:47.509Z,34.57
2019-05-01T00:27:21.052Z,36.13
2019-05-01T00:29:53.142Z,34.03
2019-05-01T00:32:25.498Z,31.40
2019-05-01T00:34:55.994Z,32.47
2019-05-01T00:37:26.497Z,34.73
2019-05-01T00:39:57.005Z,35.40
2019-05-01T00:42:29.564Z,36.20
2019-05-01T00:45:00.366Z,38.73
2019-05-01T00:47:30.733Z,37.47
2019-05-01T00:50:02.177Z,38.63
2019-05-01T00:52:33.031Z,40.13
2019-05-01T00:55:39.193Z,38.07
2019-05-01T00:58:27.033Z,35.33
2019-05-01T01:01:24.797Z,28.63
2019-05-01T01:03:58.676Z,37.40
2019-05-01T01:06:30.774Z,31.63
2019-05-01T01:09:01.502Z,35.87
2019-05-01T01:11:33.554Z,37.20
2019-05-01T01:14:04.334Z,33.43
2019-05-01T01:16:36.976Z,34.73
2019-05-01T01:19:07.644Z,32.57
2019-05-01T01:21:38.355Z,32.17
2019-05-01T01:24:09.876Z,34.20
2019-05-01T01:26:40.534Z,36.87
2019-05-01T01:29:11.712Z,33.23
2019-05-01T01:31:42.432Z,34.00
2019-05-01T01:34:12.807Z,32.07
2019-05-01T01:36:45.206Z,31.00
2019-05-01T01:39:15.604Z,32.50
2019-05-01T01:41:47.860Z,31.93
2019-05-01T01:44:39.228Z,31.43
2019-05-01T01:47:11.285Z,35.27
2019-05-01T01:49:46.421Z,33.27
2019-05-01T01:52:16.813Z,29.77
2019-05-01T01:54:47.328Z,32.20
2019-05-01T01:57:21.042Z,30.80
2019-05-01T01:59:54.404Z,28.60
2019-05-01T02:02:45.589Z,28.63
2019-05-01T02:05:21.045Z,30.00
2019-05-01T02:07:52.009Z,36.33
2019-05-01T02:10:23.066Z,36.20
2019-05-01T02:12:54.069Z,31.97
2019-05-01T02:15:26.641Z,34.53
2019-05-01T02:17:57.105Z,33.17
2019-05-01T02:20:28.593Z,29.17
2019-05-01T02:22:58.968Z,32.23
2019-05-01T02:25:31.577Z,33.13
2019-05-01T02:28:34.327Z,28.67
2019-05-01T02:31:29.338Z,33.73
2019-05-01T02:34:00.749Z,29.90
2019-05-01T02:36:32.003Z,27.53
2019-05-01T02:39:05.321Z,32.80
2019-05-01T02:41:41.535Z,40.07
2019-05-01T02:44:20.317Z,34.13
2019-05-01T02:46:54.008Z,30.73
2019-05-01T02:49:34.505Z,35.03
2019-05-01T02:52:06.306Z,36.30
2019-05-01T02:54:37.756Z,35.83
2019-05-01T02:57:16.204Z,30.90
2019-05-01T02:59:49.900Z,31.47
2019-05-01T03:02:22.706Z,32.20
2019-05-01T03:04:54.689Z,36.93
2019-05-01T03:07:28.338Z,31.53
2019-05-01T03:09:59.259Z,33.23
2019-05-01T03:12:31.121Z,36.97
2019-05-01T03:15:04.331Z,32.97
2019-05-01T03:17:56.889Z,34.43
2019-05-01T03:20:59.676Z,33.43
2019-05-01T03:23:37.173Z,34.00
2019-05-01T03:26:07.771Z,37.17
2019-05-01T03:28:38.735Z,34.13
2019-05-01T03:31:09.102Z,36.63
2019-05-01T03:33:40.504Z,31.47
2019-05-01T03:36:13.423Z,31.30
2019-05-01T03:38:43.971Z,34.13
2019-05-01T03:41:15.053Z,34.10
2019-05-01T03:43:45.694Z,33.40
2019-05-01T03:46:18.160Z,34.40
2019-05-01T03:48:50.471Z,31.60
2019-05-01T03:51:21.040Z,31.97
2019-05-01T03:53:51.915Z,33.17
2019-05-01T03:56:23.872Z,35.87
2019-05-01T03:58:55.805Z,32.40
2019-05-01T04:01:44.514Z,31.20
2019-05-01T04:04:17.954Z,37.33
2019-05-01T04:06:48.703Z,34.87
2019-05-01T04:09:20.924Z,29.50
2019-05-01T04:11:51.644Z,42.30
2019-05-01T04:14:22.237Z,33.70
2019-05-01T04:16:58.654Z,37.40
2019-05-01T04:19:30.368Z,33.97
2019-05-01T04:22:10.461Z,36.70
2019-05-01T04:24:42.429Z,35.57
2019-05-01T04:27:18.706Z,32.70
2019-05-01T04:30:22.956Z,29.47
2019-05-01T04:32:57.989Z,29.77
2019-05-01T04:35:46.601Z,28.17
2019-05-01T04:38:18.746Z,31.93
2019-05-01T04:40:49.355Z,30.50
2019-05-01T04:43:20.440Z,31.97
2019-05-01T04:45:52.844Z,30.93
2019-05-01T04:48:24.619Z,32.13
2019-05-01T04:50:55.539Z,30.17
2019-05-01T04:53:29.814Z,28.77
2019-05-01T04:56:00.678Z,29.93
2019-05-01T04:58:31.661Z,33.03
2019-05-01T05:01:05.489Z,28.03
2019-05-01T05:03:38.053Z,32.30
2019-05-01T05:06:11.557Z,38.77
2019-05-01T05:08:45.097Z,37.07
2019-05-01T05:11:21.076Z,31.47
2019-05-01T05:14:09.398Z,35.83
2019-05-01T05:17:03.078Z,35.57
2019-05-01T05:19:33.533Z,33.13
2019-05-01T05:22:04.341Z,32.33
2019-05-01T05:24:34.852Z,32.33
2019-05-01T05:27:05.686Z,37.10
2019-05-01T05:29:37.957Z,35.87
2019-05-01T05:32:09.337Z,38.23
2019-05-01T05:34:41.573Z,36.83
2019-05-01T05:37:19.173Z,37.87
2019-05-01T05:39:50.949Z,37.23
2019-05-01T05:42:22.070Z,35.20
2019-05-01T05:44:53.086Z,30.77
2019-05-01T05:47:25.619Z,33.23
2019-05-01T05:49:57.481Z,29.37
2019-05-01T05:52:44.597Z,30.17
2019-05-01T05:55:24.897Z,34.97
2019-05-01T05:58:17.199Z,39.00
2019-05-01T06:01:09.436Z,36.23
2019-05-01T06:04:00.550Z,34.57
2019-05-01T06:06:52.690Z,31.77
2019-05-01T06:09:30.602Z,36.07
2019-05-01T06:12:29.895Z,31.53
2019-05-01T06:15:11.360Z,34.97
2019-05-01T06:18:06.065Z,36.20
2019-05-01T06:20:57.130Z,35.33
2019-05-01T06:23:38.715Z,33.90
2019-05-01T06:26:26.417Z,35.23
2019-05-01T06:29:00.650Z,30.17
2019-05-01T06:31:29.529Z,36.30
2019-05-01T06:34:01.526Z,32.57
2019-05-01T06:36:32.454Z,32.60
2019-05-01T06:39:06.752Z,35.50
2019-05-01T06:41:43.521Z,35.70
2019-05-01T06:44:38.147Z,34.37
2019-05-01T06:47:32.787Z,33.57
2019-05-01T06:50:25.662Z,33.33
2019-05-01T06:52:59.781Z,34.17
2019-05-01T06:55:30.385Z,38.87
2019-05-01T06:58:01.341Z,34.73
2019-05-01T07:00:32.086Z,34.27
2019-05-01T07:03:05.932Z,34.17
2019-05-01T07:05:36.083Z,29.87
2019-05-01T07:08:06.902Z,34.77
2019-05-01T07:10:44.300Z,32.03
2019-05-01T07:13:10.465Z,31.60
2019-05-01T07:15:40.956Z,30.67
2019-05-01T07:18:11.541Z,28.03
2019-05-01T07:20:53.921Z,30.30
2019-05-01T07:23:24.631Z,26.93
2019-05-01T07:25:55.706Z,29.03
2019-05-01T07:28:29.082Z,28.23
2019-05-01T07:31:06.912Z,27.47
2019-05-01T07:33:37.613Z,29.50
2019-05-01T07:36:15.506Z,24.03
2019-05-01T07:38:40.714Z,25.57
2019-05-01T07:41:14.344Z,26.13
2019-05-01T07:44:03.016Z,30.27
2019-05-01T07:46:56.185Z,30.63
2019-05-01T07:49:57.034Z,26.10
2019-05-01T07:52:29.367Z,27.00
2019-05-01T07:55:00.354Z,30.03
2019-05-01T07:57:34.373Z,26.77
2019-05-01T08:00:08.353Z,30.97
2019-05-01T08:02:37.853Z,25.17
2019-05-01T08:05:10.065Z,32.60
2019-05-01T08:07:41.137Z,23.20
2019-05-01T08:10:11.986Z,25.53
2019-05-01T08:12:45.056Z,22.93
2019-05-01T08:15:14.875Z,23.33
2019-05-01T08:17:48.886Z,22.67
2019-05-01T08:20:35.686Z,26.33
2019-05-01T08:23:07.614Z,19.47
2019-05-01T08:25:38.265Z,17.37
2019-05-01T08:28:16.322Z,21.00
2019-05-01T08:31:09.216Z,20.23
2019-05-01T08:33:55.832Z,19.47
2019-05-01T08:36:26.632Z,21.60
2019-05-01T08:38:57.663Z,19.60
2019-05-01T08:41:31.863Z,19.63
2019-05-01T08:44:00.773Z,22.77
2019-05-01T08:46:46.970Z,22.80
2019-05-01T08:49:49.559Z,16.20
2019-05-01T08:52:18.347Z,21.23
2019-05-01T08:54:50.534Z,17.00
2019-05-01T08:57:20.910Z,19.63
2019-05-01T08:59:55.808Z,23.10
2019-05-01T09:02:24.604Z,23.37
2019-05-01T09:05:02.450Z,22.40
2019-05-01T09:07:28.999Z,19.57
2019-05-01T09:09:59.342Z,25.60
2019-05-01T09:12:29.988Z,21.20
2019-05-01T09:15:00.833Z,13.07
2019-05-01T09:17:31.304Z,13.60
2019-05-01T09:20:03.430Z,17.27
2019-05-01T09:22:35.365Z,16.77
2019-05-01T09:25:10.001Z,14.27
2019-05-01T09:27:47.672Z,16.97
2019-05-01T09:30:26.955Z,16.50
2019-05-01T09:32:57.568Z,16.53
2019-05-01T09:35:28.085Z,17.57
2019-05-01T09:37:58.466Z,14.03
2019-05-01T09:40:29.146Z,15.67
2019-05-01T09:43:01.144Z,14.03
2019-05-01T09:45:32.968Z,16.13
2019-05-01T09:48:03.898Z,15.40
2019-05-01T09:50:35.898Z,13.87
2019-05-01T09:53:35.649Z,15.73
2019-05-01T09:56:12.382Z,12.33
2019-05-01T09:58:43.239Z,16.90
2019-05-01T10:01:14.590Z,12.03
2019-05-01T10:03:49.426Z,12.53
2019-05-01T10:06:19.502Z,14.93
2019-05-01T10:08:51.121Z,15.60
2019-05-01T10:11:22.922Z,14.47
2019-05-01T10:13:57.954Z,13.60
2019-05-01T10:16:25.609Z,14.60
2019-05-01T10:18:56.901Z,15.67
2019-05-01T10:21:28.951Z,14.47
2019-05-01T10:23:59.488Z,13.17
2019-05-01T10:26:31.924Z,18.17
2019-05-01T10:29:30.442Z,15.43
2019-05-01T10:32:05.257Z,15.10
2019-05-01T10:34:56.705Z,16.13
2019-05-01T10:37:28.344Z,14.10
2019-05-01T10:40:01.218Z,18.03
2019-05-01T10:42:33.141Z,14.20
2019-05-01T10:45:03.610Z,14.97
2019-05-01T10:47:36.743Z,14.30
2019-05-01T10:50:07.957Z,18.20
2019-05-01T10:52:38.663Z,15.60
2019-05-01T10:55:10.663Z,13.20
2019-05-01T10:57:42.224Z,19.93
2019-05-01T11:00:13.408Z,12.97
2019-05-01T11:02:45.648Z,15.93
2019-05-01T11:05:17.433Z,17.67
2019-05-01T11:07:47.861Z,19.23
2019-05-01T11:10:19.851Z,21.53
2019-05-01T11:12:50.918Z,16.43
2019-05-01T11:15:21.414Z,17.67
2019-05-01T11:17:51.770Z,14.37
2019-05-01T11:20:24.017Z,20.20
2019-05-01T11:22:56.215Z,18.23
2019-05-01T11:25:27.693Z,16.17
2019-05-01T11:27:58.505Z,17.00
2019-05-01T11:30:29.319Z,20.60
2019-05-01T11:33:08.139Z,18.87
2019-05-01T11:36:09.240Z,16.77
2019-05-01T11:39:02.446Z,20.87
2019-05-01T11:41:44.548Z,18.20
2019-05-01T11:44:16.273Z,17.50
2019-05-01T11:46:46.693Z,19.67
2019-05-01T11:49:17.490Z,15.03
2019-05-01T11:51:47.860Z,19.13
2019-05-01T11:54:18.307Z,16.53
2019-05-01T11:56:48.711Z,16.47
2019-05-01T11:59:19.721Z,24.17
2019-05-01T12:01:51.249Z,16.80
2019-05-01T12:04:21.622Z,18.47
2019-05-01T12:06:51.976Z,21.87
2019-05-01T12:09:22.742Z,15.23
2019-05-01T12:11:57.139Z,16.60
2019-05-01T12:14:28.994Z,13.63
2019-05-01T12:17:16.905Z,15.10
2019-05-01T12:19:47.617Z,21.90
2019-05-01T12:22:18.457Z,15.73
2019-05-01T12:24:49.587Z,21.20
2019-05-01T12:27:19.938Z,20.23
2019-05-01T12:29:50.387Z,13.40
2019-05-01T12:32:20.833Z,17.13
2019-05-01T12:34:51.193Z,15.93
2019-05-01T12:37:55.095Z,15.93
2019-05-01T12:40:24.542Z,14.67
2019-05-01T12:42:55.086Z,19.50
2019-05-01T12:45:25.751Z,17.30
2019-05-01T12:47:57.974Z,14.33
2019-05-01T12:50:28.354Z,17.97
2019-05-01T12:53:19.817Z,12.03
2019-05-01T12:56:15.533Z,14.67
2019-05-01T12:58:47.198Z,15.00
2019-05-01T13:01:17.660Z,10.83
2019-05-01T13:03:49.550Z,18.43
2019-05-01T13:06:20.273Z,16.70
2019-05-01T13:08:52.870Z,18.40
2019-05-01T13:11:23.248Z,18.57
2019-05-01T13:13:56.435Z,13.47
2019-05-01T13:16:27.996Z,20.23
2019-05-01T13:18:58.830Z,15.17
2019-05-01T13:21:29.923Z,16.93
2019-05-01T13:24:00.490Z,15.23
2019-05-01T13:26:38.769Z,21.73
2019-05-01T13:29:14.958Z,19.07
2019-05-01T13:31:59.446Z,15.40
2019-05-01T13:34:29.860Z,19.83
2019-05-01T13:37:03.488Z,13.23
2019-05-01T13:39:34.761Z,13.30
2019-05-01T13:42:08.981Z,16.87
2019-05-01T13:44:42.690Z,16.27
2019-05-01T13:47:14.094Z,13.80
2019-05-01T13:49:44.462Z,15.47
2019-05-01T13:52:16.308Z,18.70
2019-05-01T13:54:47.834Z,18.00
2019-05-01T13:57:19.697Z,12.53
2019-05-01T13:59:50.532Z,14.93
2019-05-01T14:02:24.512Z,17.43
2019-05-01T14:04:55.050Z,16.23
2019-05-01T14:07:26.561Z,13.20
2019-05-01T14:09:58.329Z,16.43
2019-05-01T14:12:28.716Z,13.53
2019-05-01T14:15:00.618Z,11.43
2019-05-01T14:17:33.211Z,14.93
2019-05-01T14:20:10.655Z,12.67
2019-05-01T14:22:48.762Z,13.80
2019-05-01T14:25:19.523Z,17.60
2019-05-01T14:27:51.038Z,15.67
2019-05-01T14:30:21.433Z,11.13
2019-05-01T14:32:52.236Z,16.97
2019-05-01T14:35:22.866Z,16.50
2019-05-01T14:37:54.189Z,12.27
2019-05-01T14:40:25.065Z,12.97
2019-05-01T14:42:57.218Z,14.27
2019-05-01T14:45:29.082Z,16.13
2019-05-01T14:47:59.820Z,14.73
2019-05-01T14:50:30.300Z,10.97
2019-05-01T14:53:04.089Z,9.70
2019-05-01T14:55:35.579Z,12.10
2019-05-01T14:58:06.114Z,11.20
2019-05-01T15:00:36.630Z,11.97
2019-05-01T15:03:07.002Z,10.93
2019-05-01T15:05:37.409Z,10.33
2019-05-01T15:08:09.729Z,15.70
2019-05-01T15:10:43.287Z,16.40
2019-05-01T15:13:32.620Z,15.43
2019-05-01T15:16:17.741Z,10.60
2019-05-01T15:19:07.416Z,12.47
2019-05-01T15:21:39.192Z,12.70
2019-05-01T15:24:10.877Z,14.63
2019-05-01T15:26:43.023Z,13.93
2019-05-01T15:29:14.204Z,12.33
2019-05-01T15:31:46.934Z,13.53
2019-05-01T15:34:19.273Z,10.93
2019-05-01T15:36:49.686Z,17.40
2019-05-01T15:39:27.422Z,14.37
2019-05-01T15:42:32.052Z,12.27
2019-05-01T15:45:03.661Z,11.90
2019-05-01T15:47:35.215Z,12.40
2019-05-01T15:50:06.547Z,12.20
2019-05-01T15:52:37.244Z,18.37
2019-05-01T15:55:08.001Z,11.87
2019-05-01T15:57:38.577Z,12.63
2019-05-01T16:00:10.682Z,12.87
2019-05-01T16:02:41.955Z,11.43
2019-05-01T16:05:13.156Z,12.17
2019-05-01T16:07:43.533Z,9.63
2019-05-01T16:10:17.006Z,13.20
2019-05-01T16:12:56.189Z,10.70
2019-05-01T16:15:34.215Z,11.67
2019-05-01T16:18:05.138Z,12.50
2019-05-01T16:20:35.776Z,14.80
2019-05-01T16:23:06.547Z,10.20
2019-05-01T16:25:36.958Z,9.27
2019-05-01T16:28:07.755Z,9.70
2019-05-01T16:30:38.584Z,12.27
2019-05-01T16:33:09.648Z,12.70
2019-05-01T16:35:40.209Z,11.63
2019-05-01T16:38:22.966Z,11.63
2019-05-01T16:41:01.189Z,13.77
2019-05-01T16:43:32.539Z,9.80
2019-05-01T16:46:02.993Z,13.63
2019-05-01T16:48:33.390Z,12.33
2019-05-01T16:51:03.766Z,14.40
2019-05-01T16:53:34.506Z,14.97
2019-05-01T16:56:05.819Z,10.17
2019-05-01T16:58:36.852Z,11.43
2019-05-01T17:01:12.568Z,13.93
2019-05-01T17:04:05.202Z,17.43
2019-05-01T17:07:00.484Z,12.97
2019-05-01T17:10:02.229Z,11.83
2019-05-01T17:12:36.643Z,13.90
2019-05-01T17:15:07.426Z,10.03
2019-05-01T17:17:41.043Z,12.13
2019-05-01T17:20:11.941Z,13.57
2019-05-01T17:22:46.307Z,10.17
2019-05-01T17:25:18.582Z,10.43
2019-05-01T17:27:49.295Z,11.77
2019-05-01T17:30:26.157Z,13.23
2019-05-01T17:32:56.869Z,13.00
2019-05-01T17:35:27.642Z,14.87
2019-05-01T17:37:58.848Z,10.20
2019-05-01T17:40:29.321Z,11.33
2019-05-01T17:43:00.652Z,11.97
2019-05-01T17:45:34.782Z,10.80
2019-05-01T17:48:03.537Z,12.53
2019-05-01T17:50:34.404Z,10.80
2019-05-01T17:53:04.802Z,17.37
2019-05-01T17:55:35.661Z,14.53
2019-05-01T17:58:07.414Z,7.90
2019-05-01T18:00:51.492Z,10.13
2019-05-01T18:03:50.485Z,18.70
2019-05-01T18:06:27.356Z,6.97
2019-05-01T18:09:03.203Z,9.10
2019-05-01T18:11:30.509Z,13.17
2019-05-01T18:14:06.567Z,9.63
2019-05-01T18:16:38.977Z,17.43
2019-05-01T18:19:11.160Z,9.97
2019-05-01T18:21:46.616Z,9.60
2019-05-01T18:24:33.425Z,9.43
2019-05-01T18:27:29.293Z,11.37
2019-05-01T18:30:03.322Z,8.90
2019-05-01T18:32:46.917Z,9.90
2019-05-01T18:35:16.075Z,9.80
2019-05-01T18:37:52.098Z,13.53
2019-05-01T18:40:44.805Z,12.57
2019-05-01T18:43:15.417Z,10.83
2019-05-01T18:45:49.243Z,14.30
2019-05-01T18:48:20.558Z,16.20
2019-05-01T18:50:54.663Z,18.10
2019-05-01T18:53:23.908Z,15.20
2019-05-01T18:55:54.306Z,19.27
2019-05-01T18:58:24.687Z,23.80
2019-05-01T19:00:56.455Z,21.70
2019-05-01T19:03:26.939Z,13.60
2019-05-01T19:05:58.110Z,13.80
2019-05-01T19:08:28.778Z,17.00
2019-05-01T19:11:11.739Z,15.93
2019-05-01T19:13:31.250Z,17.77
2019-05-01T19:16:03.292Z,10.30
2019-05-01T19:18:34.336Z,14.03
2019-05-01T19:21:04.801Z,18.00
2019-05-01T19:23:35.559Z,13.47
2019-05-01T19:26:07.282Z,15.80
2019-05-01T19:28:39.743Z,13.90
2019-05-01T19:31:13.207Z,13.90
2019-05-01T19:33:43.603Z,17.47
2019-05-01T19:36:14.169Z,13.90
2019-05-01T19:38:46.331Z,15.80
2019-05-01T19:41:17.177Z,17.30
2019-05-01T19:43:48.025Z,14.57
2019-05-01T19:46:18.837Z,13.80
2019-05-01T19:48:50.699Z,14.90
2019-05-01T19:51:24.136Z,19.37
2019-05-01T19:53:54.349Z,15.10
2019-05-01T19:56:24.833Z,13.63
2019-05-01T19:58:57.000Z,20.90
2019-05-01T20:01:29.331Z,16.97
2019-05-01T20:04:01.667Z,17.77
2019-05-01T20:06:38.442Z,12.43
2019-05-01T20:09:07.301Z,15.83
2019-05-01T20:11:38.902Z,17.67
2019-05-01T20:14:09.231Z,20.57
2019-05-01T20:16:39.605Z,15.20
2019-05-01T20:19:12.875Z,20.67
2019-05-01T20:21:43.787Z,18.40
2019-05-01T20:24:14.164Z,20.13
2019-05-01T20:26:44.518Z,18.13
2019-05-01T20:29:15.172Z,22.20
2019-05-01T20:31:50.626Z,15.43
2019-05-01T20:34:22.806Z,17.10
2019-05-01T20:36:54.473Z,14.33
2019-05-01T20:39:25.198Z,19.87
2019-05-01T20:41:57.151Z,16.47
2019-05-01T20:44:29.637Z,14.03
2019-05-01T20:47:02.665Z,13.57
2019-05-01T20:49:36.451Z,18.87
2019-05-01T20:52:07.307Z,17.37
2019-05-01T20:54:38.089Z,16.73
2019-05-01T20:57:21.286Z,16.20
2019-05-01T20:59:51.143Z,18.17
2019-05-01T21:02:21.633Z,15.37
2019-05-01T21:05:00.113Z,18.73
2019-05-01T21:07:37.678Z,14.27
2019-05-01T21:10:08.816Z,20.47
2019-05-01T21:12:39.561Z,21.03
2019-05-01T21:15:10.226Z,19.00
2019-05-01T21:17:44.263Z,13.50
2019-05-01T21:20:14.657Z,10.33
2019-05-01T21:22:46.483Z,18.17
2019-05-01T21:25:17.226Z,13.67
2019-05-01T21:27:47.955Z,15.47
2019-05-01T21:30:18.377Z,12.33
2019-05-01T21:32:50.319Z,16.13
2019-05-01T21:35:20.801Z,12.03
2019-05-01T21:37:51.902Z,12.97
2019-05-01T21:40:23.434Z,18.07
2019-05-01T21:42:55.884Z,14.27
2019-05-01T21:45:26.506Z,22.53
2019-05-01T21:47:59.751Z,14.20
2019-05-01T21:50:30.616Z,14.07
2019-05-01T21:53:03.274Z,13.80
2019-05-01T21:55:35.461Z,17.10
2019-05-01T21:58:06.050Z,18.10
2019-05-01T22:00:39.387Z,17.60
2019-05-01T22:03:11.968Z,15.83
2019-05-01T22:05:42.924Z,13.97
2019-05-01T22:08:16.229Z,18.17
2019-05-01T22:10:52.150Z,16.73
2019-05-01T22:13:24.063Z,15.33
2019-05-01T22:15:56.697Z,20.57
2019-05-01T22:18:36.031Z,14.30
2019-05-01T22:21:25.919Z,23.67
2019-05-01T22:24:15.496Z,19.37
2019-05-01T22:26:52.702Z,15.17
2019-05-01T22:29:27.212Z,13.83
2019-05-01T22:32:19.136Z,19.20
2019-05-01T22:34:53.893Z,16.13
2019-05-01T22:37:25.034Z,20.43
2019-05-01T22:40:01.963Z,16.23
2019-05-01T22:42:32.669Z,14.50
2019-05-01T22:45:03.559Z,19.70
2019-05-01T22:47:33.952Z,15.33
2019-05-01T22:50:06.619Z,19.53
2019-05-01T22:52:38.780Z,19.07
2019-05-01T22:55:09.678Z,17.17
2019-05-01T22:57:41.429Z,16.63
2019-05-01T23:00:29.899Z,20.43
2019-05-01T23:03:05.609Z,17.73
2019-05-01T23:05:36.876Z,14.40
2019-05-01T23:08:07.387Z,19.87
2019-05-01T23:10:41.868Z,16.40
2019-05-01T23:13:10.556Z,17.80
2019-05-01T23:15:42.588Z,19.67
2019-05-01T23:18:15.579Z,17.30
2019-05-01T23:20:47.721Z,17.87
2019-05-01T23:23:18.080Z,21.30
2019-05-01T23:25:50.245Z,20.27
2019-05-01T23:28:22.090Z,21.10
2019-05-01T23:30:52.758Z,18.03
2019-05-01T23:33:23.059Z,21.67
2019-05-01T23:35:53.399Z,22.83
2019-05-01T23:38:25.243Z,16.30
2019-05-01T23:40:55.686Z,20.60
2019-05-01T23:43:27.891Z,25.70
2019-05-01T23:46:01.459Z,18.20
2019-05-01T23:48:32.832Z,17.47
2019-05-01T23:51:06.315Z,18.83
2019-05-01T23:53:38.965Z,20.37
2019-05-01T23:56:09.349Z,19.07
2019-05-01T23:58:42.658Z,23.47
